createdAt,value
2017-04-19T00:00:21.465Z,1012.26
2017-04-19T00:01:21.497Z,1012.28
2017-04-19T00:02:21.529Z,1012.25
2017-04-19T00:03:21.561Z,1012.27
2017-04-19T00:04:21.593Z,1012.28
2017-04-19T00:05:21.627Z,1012.31
2017-04-19T00:06:21.655Z,1012.27
2017-04-19T00:07:21.688Z,1012.3
2017-04-19T00:08:21.719Z,1012.3
2017-04-19T00:09:21.751Z,1012.34
2017-04-19T00:10:21.782Z,1012.31
2017-04-19T00:11:21.814Z,1012.3
2017-04-19T00:12:21.846Z,1012.3
2017-04-19T00:13:21.878Z,1012.31
2017-04-19T00:14:21.909Z,1012.3
2017-04-19T00:15:21.941Z,1012.31
2017-04-19T00:16:21.975Z,1012.28
2017-04-19T00:17:22.004Z,1012.24
2017-04-19T00:18:22.036Z,1012.25
2017-04-19T00:19:22.067Z,1012.26
2017-04-19T00:20:22.099Z,1012.26
2017-04-19T00:21:22.129Z,1012.26
2017-04-19T00:22:22.162Z,1012.26
2017-04-19T00:23:22.193Z,1012.28
2017-04-19T00:24:22.226Z,1012.3
2017-04-19T00:25:22.279Z,1012.3
2017-04-19T00:26:22.288Z,1012.24
2017-04-19T00:27:22.319Z,1012.21
2017-04-19T00:28:22.351Z,1012.24
2017-04-19T00:29:22.383Z,1012.25
2017-04-19T00:30:22.415Z,1012.23
2017-04-19T00:31:22.448Z,1012.23
2017-04-19T00:32:22.478Z,1012.2
2017-04-19T00:33:22.509Z,1012.26
2017-04-19T00:34:22.541Z,1012.25
2017-04-19T00:35:22.573Z,1012.24
2017-04-19T00:36:22.605Z,1012.27
2017-04-19T00:37:22.637Z,1012.28
2017-04-19T00:38:22.670Z,1012.28
2017-04-19T00:39:22.700Z,1012.28
2017-04-19T00:40:22.732Z,1012.24
2017-04-19T00:41:22.764Z,1012.24
2017-04-19T00:42:22.797Z,1012.22
2017-04-19T00:43:22.827Z,1012.22
2017-04-19T00:44:22.858Z,1012.25
2017-04-19T00:45:22.895Z,1012.25
2017-04-19T00:46:22.920Z,1012.29
2017-04-19T00:47:22.952Z,1012.27
2017-04-19T00:48:22.984Z,1012.3
2017-04-19T00:49:23.015Z,1012.24
2017-04-19T00:50:23.046Z,1012.28
2017-04-19T00:51:23.078Z,1012.27
2017-04-19T00:52:23.110Z,1012.25
2017-04-19T00:53:23.142Z,1012.28
2017-04-19T00:54:23.172Z,1012.27
2017-04-19T00:55:23.202Z,1012.27
2017-04-19T00:56:23.235Z,1012.29
2017-04-19T00:57:23.270Z,1012.33
2017-04-19T00:58:23.298Z,1012.32
2017-04-19T00:59:23.329Z,1012.37
2017-04-19T01:00:23.359Z,1012.34
2017-04-19T01:01:23.391Z,1012.36
2017-04-19T01:02:23.422Z,1012.34
2017-04-19T01:03:23.456Z,1012.37
2017-04-19T01:04:23.486Z,1012.37
2017-04-19T01:05:23.516Z,1012.37
2017-04-19T01:06:23.548Z,1012.4
2017-04-19T01:07:23.609Z,1012.39
2017-04-19T01:08:23.610Z,1012.43
2017-04-19T01:09:23.641Z,1012.39
2017-04-19T01:10:23.673Z,1012.45
2017-04-19T01:11:23.704Z,1012.46
2017-04-19T01:12:23.739Z,1012.46
2017-04-19T01:13:23.766Z,1012.49
2017-04-19T01:14:23.798Z,1012.51
2017-04-19T01:15:23.829Z,1012.49
2017-04-19T01:16:23.859Z,1012.53
2017-04-19T01:17:23.895Z,1012.52
2017-04-19T01:18:23.921Z,1012.54
2017-04-19T01:19:23.951Z,1012.53
2017-04-19T01:20:23.983Z,1012.53
2017-04-19T01:21:24.014Z,1012.56
2017-04-19T01:22:24.048Z,1012.55
2017-04-19T01:23:24.075Z,1012.57
2017-04-19T01:24:24.107Z,1012.6
2017-04-19T01:25:24.146Z,1012.57
2017-04-19T01:26:24.169Z,1012.59
2017-04-19T01:27:24.218Z,1012.62
2017-04-19T01:28:24.231Z,1012.63
2017-04-19T01:29:24.262Z,1012.66
2017-04-19T01:30:24.290Z,1012.64
2017-04-19T01:31:24.323Z,1012.66
2017-04-19T01:32:24.353Z,1012.64
2017-04-19T01:33:24.385Z,1012.68
2017-04-19T01:34:24.414Z,1012.67
2017-04-19T01:35:24.445Z,1012.66
2017-04-19T01:36:24.477Z,1012.68
2017-04-19T01:37:24.507Z,1012.67
2017-04-19T01:38:24.538Z,1012.72
2017-04-19T01:39:24.568Z,1012.64
2017-04-19T01:40:24.599Z,1012.68
2017-04-19T01:41:24.629Z,1012.69
2017-04-19T01:42:24.661Z,1012.73
2017-04-19T01:43:24.691Z,1012.73
2017-04-19T01:44:24.722Z,1012.72
2017-04-19T01:45:24.753Z,1012.73
2017-04-19T01:46:24.782Z,1012.69
2017-04-19T01:47:24.814Z,1012.74
2017-04-19T01:48:24.845Z,1012.72
2017-04-19T01:49:24.876Z,1012.77
2017-04-19T01:50:24.906Z,1012.76
2017-04-19T01:51:24.937Z,1012.76
2017-04-19T01:52:24.966Z,1012.8
2017-04-19T01:53:25.004Z,1012.78
2017-04-19T01:54:25.029Z,1012.78
2017-04-19T01:55:25.059Z,1012.76
2017-04-19T01:56:25.089Z,1012.79
2017-04-19T01:57:25.119Z,1012.78
2017-04-19T01:58:25.150Z,1012.78
2017-04-19T01:59:25.181Z,1012.8
2017-04-19T02:00:25.212Z,1012.8
2017-04-19T02:01:25.242Z,1012.79
2017-04-19T02:02:25.273Z,1012.83
2017-04-19T02:03:25.303Z,1012.85
2017-04-19T02:04:25.335Z,1012.87
2017-04-19T02:05:25.366Z,1012.87
2017-04-19T02:06:25.396Z,1012.86
2017-04-19T02:07:25.425Z,1012.89
2017-04-19T02:08:25.456Z,1012.9
2017-04-19T02:09:25.487Z,1012.87
2017-04-19T02:10:25.519Z,1012.85
2017-04-19T02:11:25.550Z,1012.87
2017-04-19T02:12:25.581Z,1012.87
2017-04-19T02:13:25.611Z,1012.87
2017-04-19T02:14:25.642Z,1012.85
2017-04-19T02:15:25.673Z,1012.89
2017-04-19T02:16:25.703Z,1012.9
2017-04-19T02:17:25.735Z,1012.89
2017-04-19T02:18:25.764Z,1012.89
2017-04-19T02:19:25.794Z,1012.94
2017-04-19T02:20:25.826Z,1012.94
2017-04-19T02:21:25.868Z,1012.95
2017-04-19T02:22:25.886Z,1012.93
2017-04-19T02:23:25.920Z,1012.94
2017-04-19T02:24:25.950Z,1012.94
2017-04-19T02:25:25.980Z,1013.03
2017-04-19T02:26:26.009Z,1012.98
2017-04-19T02:27:26.041Z,1012.98
2017-04-19T02:28:26.071Z,1013.03
2017-04-19T02:29:26.102Z,1012.99
2017-04-19T02:30:26.133Z,1013
2017-04-19T02:31:26.178Z,1013.04
2017-04-19T02:32:26.195Z,1013
2017-04-19T02:33:26.225Z,1013.04
2017-04-19T02:34:26.256Z,1013
2017-04-19T02:35:26.287Z,1013
2017-04-19T02:36:26.317Z,1013.01
2017-04-19T02:37:26.348Z,1012.98
2017-04-19T02:38:26.380Z,1013.01
2017-04-19T02:39:26.410Z,1013
2017-04-19T02:40:26.440Z,1013.04
2017-04-19T02:41:26.471Z,1013.05
2017-04-19T02:42:26.502Z,1013.06
2017-04-19T02:43:26.532Z,1013.08
2017-04-19T02:44:26.562Z,1013.06
2017-04-19T02:45:26.593Z,1013.09
2017-04-19T02:46:26.625Z,1013.09
2017-04-19T02:47:26.656Z,1013.1
2017-04-19T02:48:26.685Z,1013.1
2017-04-19T02:49:26.716Z,1013.12
2017-04-19T02:50:26.748Z,1013.16
2017-04-19T02:51:26.777Z,1013.16
2017-04-19T02:52:26.809Z,1013.19
2017-04-19T02:53:26.842Z,1013.18
2017-04-19T02:54:26.870Z,1013.17
2017-04-19T02:55:26.899Z,1013.16
2017-04-19T02:56:26.931Z,1013.17
2017-04-19T02:57:26.962Z,1013.22
2017-04-19T02:58:26.992Z,1013.24
2017-04-19T02:59:27.023Z,1013.26
2017-04-19T03:00:27.053Z,1013.24
2017-04-19T03:01:27.084Z,1013.25
2017-04-19T03:02:27.115Z,1013.27
2017-04-19T03:03:27.147Z,1013.25
2017-04-19T03:04:27.178Z,1013.26
2017-04-19T03:05:27.207Z,1013.31
2017-04-19T03:06:27.237Z,1013.33
2017-04-19T03:07:27.271Z,1013.33
2017-04-19T03:08:27.311Z,1013.36
2017-04-19T03:09:27.329Z,1013.35
2017-04-19T03:10:27.360Z,1013.35
2017-04-19T03:11:27.391Z,1013.37
2017-04-19T03:12:27.422Z,1013.38
2017-04-19T03:13:27.454Z,1013.38
2017-04-19T03:14:27.484Z,1013.35
2017-04-19T03:15:27.514Z,1013.37
2017-04-19T03:16:27.545Z,1013.4
2017-04-19T03:17:27.575Z,1013.4
2017-04-19T03:18:27.606Z,1013.36
2017-04-19T03:19:27.637Z,1013.42
2017-04-19T03:20:27.679Z,1013.44
2017-04-19T03:21:27.698Z,1013.45
2017-04-19T03:22:27.729Z,1013.44
2017-04-19T03:23:27.760Z,1013.45
2017-04-19T03:24:27.790Z,1013.44
2017-04-19T03:25:27.822Z,1013.5
2017-04-19T03:26:27.851Z,1013.48
2017-04-19T03:27:27.882Z,1013.48
2017-04-19T03:28:27.914Z,1013.49
2017-04-19T03:29:27.945Z,1013.46
2017-04-19T03:30:27.975Z,1013.48
2017-04-19T03:31:28.004Z,1013.51
2017-04-19T03:32:28.036Z,1013.46
2017-04-19T03:33:28.067Z,1013.5
2017-04-19T03:34:28.099Z,1013.53
2017-04-19T03:35:28.139Z,1013.51
2017-04-19T03:36:28.158Z,1013.54
2017-04-19T03:37:28.191Z,1013.54
2017-04-19T03:38:28.219Z,1013.53
2017-04-19T03:39:28.250Z,1013.58
2017-04-19T03:40:28.282Z,1013.54
2017-04-19T03:41:28.312Z,1013.54
2017-04-19T03:42:28.341Z,1013.53
2017-04-19T03:43:28.375Z,1013.59
2017-04-19T03:44:28.420Z,1013.56
2017-04-19T03:45:28.438Z,1013.56
2017-04-19T03:46:28.465Z,1013.58
2017-04-19T03:47:28.495Z,1013.6
2017-04-19T03:48:28.526Z,1013.59
2017-04-19T03:49:28.556Z,1013.61
2017-04-19T03:50:28.586Z,1013.64
2017-04-19T03:51:28.618Z,1013.61
2017-04-19T03:52:28.649Z,1013.67
2017-04-19T03:53:28.678Z,1013.63
2017-04-19T03:54:28.722Z,1013.67
2017-04-19T03:55:28.740Z,1013.66
2017-04-19T03:56:28.770Z,1013.68
2017-04-19T03:57:28.804Z,1013.67
2017-04-19T03:58:28.830Z,1013.69
2017-04-19T03:59:28.861Z,1013.73
2017-04-19T04:00:28.891Z,1013.75
2017-04-19T04:01:28.922Z,1013.74
2017-04-19T04:02:28.952Z,1013.75
2017-04-19T04:03:28.984Z,1013.75
2017-04-19T04:04:29.013Z,1013.79
2017-04-19T04:05:29.043Z,1013.82
2017-04-19T04:06:29.074Z,1013.8
2017-04-19T04:07:29.103Z,1013.81
2017-04-19T04:08:29.134Z,1013.85
2017-04-19T04:09:29.165Z,1013.84
2017-04-19T04:10:29.196Z,1013.86
2017-04-19T04:11:29.224Z,1013.88
2017-04-19T04:12:29.255Z,1013.89
2017-04-19T04:13:29.286Z,1013.9
2017-04-19T04:14:29.316Z,1013.89
2017-04-19T04:15:29.345Z,1013.93
2017-04-19T04:16:29.378Z,1013.93
2017-04-19T04:17:29.407Z,1013.96
2017-04-19T04:18:29.435Z,1013.96
2017-04-19T04:19:29.466Z,1013.98
2017-04-19T04:20:29.497Z,1013.94
2017-04-19T04:21:29.528Z,1014
2017-04-19T04:22:29.557Z,1014
2017-04-19T04:23:29.587Z,1013.99
2017-04-19T04:24:29.618Z,1014.03
2017-04-19T04:25:29.650Z,1014.02
2017-04-19T04:26:29.679Z,1014.03
2017-04-19T04:27:29.709Z,1014.07
2017-04-19T04:28:29.739Z,1014.11
2017-04-19T04:29:29.767Z,1014.1
2017-04-19T04:30:29.799Z,1014.09
2017-04-19T04:31:29.829Z,1014.11
2017-04-19T04:32:29.860Z,1014.11
2017-04-19T04:33:29.900Z,1014.14
2017-04-19T04:34:29.920Z,1014.12
2017-04-19T04:35:29.951Z,1014.11
2017-04-19T04:36:29.981Z,1014.12
2017-04-19T04:37:30.011Z,1014.15
2017-04-19T04:38:30.050Z,1014.15
2017-04-19T04:39:30.073Z,1014.13
2017-04-19T04:40:30.100Z,1014.16
2017-04-19T04:41:30.131Z,1014.16
2017-04-19T04:42:30.163Z,1014.15
2017-04-19T04:43:30.192Z,1014.17
2017-04-19T04:44:30.223Z,1014.16
2017-04-19T04:45:30.253Z,1014.19
2017-04-19T04:46:30.283Z,1014.19
2017-04-19T04:47:30.313Z,1014.18
2017-04-19T04:48:30.357Z,1014.16
2017-04-19T04:49:30.374Z,1014.22
2017-04-19T04:50:30.404Z,1014.23
2017-04-19T04:51:30.433Z,1014.22
2017-04-19T04:52:30.465Z,1014.24
2017-04-19T04:53:30.495Z,1014.22
2017-04-19T04:54:30.526Z,1014.28
2017-04-19T04:55:30.556Z,1014.3
2017-04-19T04:56:30.586Z,1014.31
2017-04-19T04:57:30.618Z,1014.27
2017-04-19T04:58:30.646Z,1014.3
2017-04-19T04:59:30.677Z,1014.31
2017-04-19T05:00:30.707Z,1014.31
2017-04-19T05:01:30.742Z,1014.26
2017-04-19T05:02:30.804Z,1014.3
2017-04-19T05:03:30.799Z,1014.31
2017-04-19T05:04:30.830Z,1014.33
2017-04-19T05:05:30.860Z,1014.32
2017-04-19T05:06:30.888Z,1014.34
2017-04-19T05:07:30.921Z,1014.37
2017-04-19T05:08:30.950Z,1014.36
2017-04-19T05:09:30.984Z,1014.43
2017-04-19T05:10:31.012Z,1014.43
2017-04-19T05:11:31.043Z,1014.44
2017-04-19T05:12:31.074Z,1014.43
2017-04-19T05:13:31.104Z,1014.46
2017-04-19T05:14:31.134Z,1014.41
2017-04-19T05:15:31.166Z,1014.46
2017-04-19T05:16:31.197Z,1014.48
2017-04-19T05:17:31.228Z,1014.51
2017-04-19T05:18:31.260Z,1014.5
2017-04-19T05:19:31.291Z,1014.53
2017-04-19T05:20:31.323Z,1014.54
2017-04-19T05:21:31.355Z,1014.57
2017-04-19T05:22:31.387Z,1014.6
2017-04-19T05:23:31.420Z,1014.56
2017-04-19T05:24:31.451Z,1014.52
2017-04-19T05:25:31.484Z,1014.58
2017-04-19T05:26:31.517Z,1014.6
2017-04-19T05:27:31.549Z,1014.65
2017-04-19T05:28:31.583Z,1014.66
2017-04-19T05:29:31.613Z,1014.68
2017-04-19T05:30:31.648Z,1014.68
2017-04-19T05:31:31.680Z,1014.73
2017-04-19T05:32:31.714Z,1014.72
2017-04-19T05:33:31.749Z,1014.77
2017-04-19T05:34:31.785Z,1014.76
2017-04-19T05:35:31.818Z,1014.87
2017-04-19T05:36:31.853Z,1014.83
2017-04-19T05:37:31.889Z,1014.84
2017-04-19T05:38:31.924Z,1014.81
2017-04-19T05:39:31.960Z,1014.83
2017-04-19T05:40:31.998Z,1014.89
2017-04-19T05:41:32.035Z,1014.88
2017-04-19T05:42:32.070Z,1014.89
2017-04-19T05:43:32.109Z,1014.86
2017-04-19T05:44:32.147Z,1014.9
2017-04-19T05:45:32.185Z,1014.92
2017-04-19T05:46:32.221Z,1014.9
2017-04-19T05:47:32.260Z,1014.95
2017-04-19T05:48:32.299Z,1014.91
2017-04-19T05:49:32.339Z,1014.96
2017-04-19T05:50:32.375Z,1014.96
2017-04-19T05:51:32.415Z,1014.98
2017-04-19T05:52:32.455Z,1014.9
2017-04-19T05:53:32.493Z,1014.96
2017-04-19T05:54:32.534Z,1014.88
2017-04-19T05:55:32.574Z,1014.88
2017-04-19T05:56:32.614Z,1014.9
2017-04-19T05:57:32.653Z,1014.95
2017-04-19T05:58:32.693Z,1015
2017-04-19T05:59:32.734Z,1014.99
2017-04-19T06:00:32.774Z,1014.94
2017-04-19T06:01:32.814Z,1014.94
2017-04-19T06:02:32.855Z,1014.96
2017-04-19T06:03:32.896Z,1015.01
2017-04-19T06:04:32.936Z,1014.99
2017-04-19T06:05:32.978Z,1014.98
2017-04-19T06:06:33.019Z,1015.01
2017-04-19T06:07:33.061Z,1015.01
2017-04-19T06:08:33.101Z,1015.04
2017-04-19T06:09:33.143Z,1015.03
2017-04-19T06:10:33.185Z,1015.07
2017-04-19T06:11:33.227Z,1015.08
2017-04-19T06:12:33.267Z,1015.11
2017-04-19T06:13:33.309Z,1015.13
2017-04-19T06:14:33.353Z,1015.11
2017-04-19T06:15:33.407Z,1015.13
2017-04-19T06:16:33.436Z,1015.18
2017-04-19T06:17:33.478Z,1015.13
2017-04-19T06:18:33.522Z,1015.12
2017-04-19T06:19:33.564Z,1015.19
2017-04-19T06:20:33.607Z,1015.23
2017-04-19T06:21:33.652Z,1015.22
2017-04-19T06:22:33.693Z,1015.2
2017-04-19T06:23:33.735Z,1015.19
2017-04-19T06:24:34.019Z,1015.18
2017-04-19T06:25:33.824Z,1015.15
2017-04-19T06:26:33.869Z,1015.19
2017-04-19T06:27:33.909Z,1015.2
2017-04-19T06:28:33.953Z,1015.25
2017-04-19T06:29:33.997Z,1015.23
2017-04-19T06:30:34.039Z,1015.25
2017-04-19T06:31:34.083Z,1015.22
2017-04-19T06:32:34.127Z,1015.24
2017-04-19T06:33:34.172Z,1015.29
2017-04-19T06:34:34.214Z,1015.33
2017-04-19T06:35:34.259Z,1015.3
2017-04-19T06:36:34.304Z,1015.3
2017-04-19T06:37:34.348Z,1015.32
2017-04-19T06:38:34.394Z,1015.32
2017-04-19T06:39:34.436Z,1015.37
2017-04-19T06:40:34.481Z,1015.37
2017-04-19T06:41:34.525Z,1015.33
2017-04-19T06:42:34.570Z,1015.36
2017-04-19T06:43:34.615Z,1015.35
2017-04-19T06:44:34.660Z,1015.37
2017-04-19T06:45:34.706Z,1015.38
2017-04-19T06:46:34.751Z,1015.37
2017-04-19T06:47:34.795Z,1015.39
2017-04-19T06:48:34.840Z,1015.42
2017-04-19T06:49:34.886Z,1015.44
2017-04-19T06:50:34.930Z,1015.42
2017-04-19T06:51:34.976Z,1015.42
2017-04-19T06:52:35.021Z,1015.45
2017-04-19T06:53:35.067Z,1015.55
2017-04-19T06:54:35.113Z,1015.51
2017-04-19T06:55:35.160Z,1015.51
2017-04-19T06:56:35.206Z,1015.47
2017-04-19T06:57:35.253Z,1015.47
2017-04-19T06:58:35.299Z,1015.56
2017-04-19T06:59:35.344Z,1015.48
2017-04-19T07:00:35.390Z,1015.51
2017-04-19T07:01:35.438Z,1015.52
2017-04-19T07:02:35.484Z,1015.51
2017-04-19T07:03:35.529Z,1015.5
2017-04-19T07:04:35.576Z,1015.55
2017-04-19T07:05:35.624Z,1015.62
2017-04-19T07:06:35.669Z,1015.58
2017-04-19T07:07:35.717Z,1015.65
2017-04-19T07:08:35.764Z,1015.63
2017-04-19T07:09:35.811Z,1015.68
2017-04-19T07:10:35.856Z,1015.62
2017-04-19T07:11:35.902Z,1015.64
2017-04-19T07:12:35.952Z,1015.62
2017-04-19T07:13:35.998Z,1015.67
2017-04-19T07:14:36.044Z,1015.65
2017-04-19T07:15:36.092Z,1015.6
2017-04-19T07:16:36.139Z,1015.6
2017-04-19T07:17:36.185Z,1015.63
2017-04-19T07:18:36.231Z,1015.61
2017-04-19T07:19:36.279Z,1015.59
2017-04-19T07:20:36.327Z,1015.62
2017-04-19T07:21:36.374Z,1015.6
2017-04-19T07:22:36.443Z,1015.66
2017-04-19T07:23:36.469Z,1015.7
2017-04-19T07:24:36.516Z,1015.62
2017-04-19T07:25:36.565Z,1015.52
2017-04-19T07:26:36.612Z,1015.69
2017-04-19T07:27:36.659Z,1015.58
2017-04-19T07:28:36.706Z,1015.73
2017-04-19T07:29:36.753Z,1015.65
2017-04-19T07:30:36.801Z,1015.62
2017-04-19T07:31:36.847Z,1015.7
2017-04-19T07:32:36.893Z,1015.7
2017-04-19T07:33:36.939Z,1015.72
2017-04-19T07:34:36.987Z,1015.75
2017-04-19T07:35:37.033Z,1015.75
2017-04-19T07:36:37.080Z,1015.73
2017-04-19T07:37:37.151Z,1015.69
2017-04-19T07:38:37.173Z,1015.66
2017-04-19T07:39:37.219Z,1015.65
2017-04-19T07:40:37.265Z,1015.53
2017-04-19T07:41:37.315Z,1015.67
2017-04-19T07:42:37.360Z,1015.69
2017-04-19T07:43:37.414Z,1015.74
2017-04-19T07:44:37.452Z,1015.64
2017-04-19T07:45:37.499Z,1015.61
2017-04-19T07:46:37.546Z,1015.66
2017-04-19T07:47:37.593Z,1015.73
2017-04-19T07:48:37.640Z,1015.58
2017-04-19T07:49:37.686Z,1015.76
2017-04-19T07:50:37.731Z,1015.68
2017-04-19T07:51:37.778Z,1015.73
2017-04-19T07:52:37.823Z,1015.73
2017-04-19T07:53:37.876Z,1015.73
2017-04-19T07:54:37.916Z,1015.72
2017-04-19T07:55:37.963Z,1015.73
2017-04-19T07:56:38.010Z,1015.73
2017-04-19T07:57:38.073Z,1015.78
2017-04-19T07:58:38.103Z,1015.68
2017-04-19T07:59:38.149Z,1015.71
2017-04-19T08:00:38.197Z,1015.74
2017-04-19T08:01:38.242Z,1015.68
2017-04-19T08:02:38.287Z,1015.78
2017-04-19T08:03:38.334Z,1015.66
2017-04-19T08:04:38.394Z,1015.76
2017-04-19T08:05:38.423Z,1015.82
2017-04-19T08:06:38.469Z,1015.83
2017-04-19T08:07:38.514Z,1015.79
2017-04-19T08:08:38.562Z,1015.72
2017-04-19T08:09:38.607Z,1015.87
2017-04-19T08:10:38.654Z,1015.89
2017-04-19T08:11:38.702Z,1015.97
2017-04-19T08:12:38.745Z,1015.92
2017-04-19T08:13:38.793Z,1015.93
2017-04-19T08:14:38.839Z,1015.82
2017-04-19T08:15:38.888Z,1015.78
2017-04-19T08:16:38.930Z,1015.92
2017-04-19T08:17:38.975Z,1015.92
2017-04-19T08:18:39.021Z,1015.84
2017-04-19T08:19:39.068Z,1015.91
2017-04-19T08:20:39.112Z,1015.93
2017-04-19T08:21:39.158Z,1015.95
2017-04-19T08:22:39.204Z,1015.81
2017-04-19T08:23:39.247Z,1015.8
2017-04-19T08:24:39.292Z,1015.74
2017-04-19T08:25:39.337Z,1015.73
2017-04-19T08:26:39.380Z,1015.65
2017-04-19T08:27:39.422Z,1015.81
2017-04-19T08:28:39.466Z,1015.79
2017-04-19T08:29:39.508Z,1015.76
2017-04-19T08:30:39.551Z,1015.77
2017-04-19T08:31:39.593Z,1015.88
2017-04-19T08:32:39.637Z,1015.82
2017-04-19T08:33:39.678Z,1015.95
2017-04-19T08:34:39.720Z,1016
2017-04-19T08:35:39.761Z,1015.89
2017-04-19T08:36:39.805Z,1015.95
2017-04-19T08:37:39.849Z,1015.76
2017-04-19T08:38:39.891Z,1015.8
2017-04-19T08:39:39.933Z,1015.73
2017-04-19T08:40:39.978Z,1015.81
2017-04-19T08:41:40.018Z,1015.79
2017-04-19T08:42:40.060Z,1015.79
2017-04-19T08:43:40.129Z,1015.74
2017-04-19T08:44:40.147Z,1015.8
2017-04-19T08:45:40.185Z,1015.82
2017-04-19T08:46:40.226Z,1015.79
2017-04-19T08:47:40.269Z,1015.82
2017-04-19T08:48:40.308Z,1015.92
2017-04-19T08:49:40.348Z,1015.97
2017-04-19T08:50:40.391Z,1015.93
2017-04-19T08:51:40.428Z,1015.9
2017-04-19T08:52:40.467Z,1015.96
2017-04-19T08:53:40.507Z,1015.99
2017-04-19T08:54:40.548Z,1015.99
2017-04-19T08:55:40.588Z,1015.97
2017-04-19T08:56:40.627Z,1015.94
2017-04-19T08:57:40.668Z,1015.91
2017-04-19T08:58:40.709Z,1015.92
2017-04-19T08:59:40.750Z,1015.86
2017-04-19T09:00:40.787Z,1016.03
2017-04-19T09:01:40.829Z,1015.97
2017-04-19T09:02:40.868Z,1015.95
2017-04-19T09:03:40.907Z,1015.94
2017-04-19T09:04:40.945Z,1015.84
2017-04-19T09:05:40.986Z,1015.87
2017-04-19T09:06:41.024Z,1015.96
2017-04-19T09:07:41.064Z,1015.84
2017-04-19T09:08:41.102Z,1015.91
2017-04-19T09:09:41.142Z,1015.86
2017-04-19T09:10:41.180Z,1015.9
2017-04-19T09:11:41.218Z,1015.93
2017-04-19T09:12:41.257Z,1015.87
2017-04-19T09:13:41.295Z,1015.87
2017-04-19T09:14:41.335Z,1015.84
2017-04-19T09:15:41.373Z,1015.92
2017-04-19T09:16:41.412Z,1015.92
2017-04-19T09:17:41.470Z,1015.89
2017-04-19T09:18:41.489Z,1015.92
2017-04-19T09:19:41.527Z,1015.86
2017-04-19T09:20:41.581Z,1015.8
2017-04-19T09:21:41.605Z,1015.8
2017-04-19T09:22:41.643Z,1015.8
2017-04-19T09:23:41.683Z,1015.8
2017-04-19T09:24:41.721Z,1015.86
2017-04-19T09:25:41.759Z,1015.82
2017-04-19T09:26:41.797Z,1015.81
2017-04-19T09:27:41.835Z,1015.76
2017-04-19T09:28:41.874Z,1015.86
2017-04-19T09:29:41.912Z,1015.87
2017-04-19T09:30:41.951Z,1015.89
2017-04-19T09:31:41.998Z,1015.94
2017-04-19T09:32:42.027Z,1015.9
2017-04-19T09:33:42.065Z,1015.92
2017-04-19T09:34:42.103Z,1015.97
2017-04-19T09:35:42.140Z,1015.93
2017-04-19T09:36:42.178Z,1016
2017-04-19T09:37:42.215Z,1015.93
2017-04-19T09:38:42.254Z,1015.89
2017-04-19T09:39:42.299Z,1015.95
2017-04-19T09:40:42.329Z,1015.95
2017-04-19T09:41:42.396Z,1016
2017-04-19T09:42:42.406Z,1016.11
2017-04-19T09:43:42.443Z,1015.86
2017-04-19T09:44:42.499Z,1016.11
2017-04-19T09:45:42.518Z,1016.07
2017-04-19T09:46:42.555Z,1016.09
2017-04-19T09:47:42.591Z,1016.03
2017-04-19T09:48:42.628Z,1015.97
2017-04-19T09:49:42.691Z,1015.97
2017-04-19T09:50:42.703Z,1016.01
2017-04-19T09:51:42.738Z,1015.99
2017-04-19T09:52:42.776Z,1016.05
2017-04-19T09:53:42.814Z,1016.09
2017-04-19T09:54:42.850Z,1016.05
2017-04-19T09:55:42.886Z,1016.07
2017-04-19T09:56:42.921Z,1016.09
2017-04-19T09:57:42.959Z,1016.05
2017-04-19T09:58:42.995Z,1016.07
2017-04-19T09:59:43.032Z,1016.13
2017-04-19T10:00:43.071Z,1016.05
2017-04-19T10:01:43.107Z,1016.05
2017-04-19T10:02:43.143Z,1016.02
2017-04-19T10:03:43.182Z,1016
2017-04-19T10:04:43.219Z,1015.95
2017-04-19T10:05:43.257Z,1015.91
2017-04-19T10:06:43.296Z,1016.08
2017-04-19T10:07:43.333Z,1016.05
2017-04-19T10:08:43.375Z,1016.09
2017-04-19T10:09:43.410Z,1016.06
2017-04-19T10:10:43.465Z,1016.07
2017-04-19T10:11:43.484Z,1015.98
2017-04-19T10:12:43.523Z,1015.96
2017-04-19T10:13:43.560Z,1016.02
2017-04-19T10:14:43.601Z,1015.93
2017-04-19T10:15:43.635Z,1016.04
2017-04-19T10:16:43.674Z,1016.06
2017-04-19T10:17:43.708Z,1016.13
2017-04-19T10:18:43.747Z,1016.06
2017-04-19T10:19:43.786Z,1016.13
2017-04-19T10:20:43.820Z,1016.19
2017-04-19T10:21:43.860Z,1016.2
2017-04-19T10:22:43.898Z,1016.06
2017-04-19T10:23:43.936Z,1016.12
2017-04-19T10:24:43.974Z,1016.01
2017-04-19T10:25:44.013Z,1016.06
2017-04-19T10:26:44.052Z,1016.12
2017-04-19T10:27:44.100Z,1016.11
2017-04-19T10:28:44.128Z,1016.09
2017-04-19T10:29:44.166Z,1016.12
2017-04-19T10:30:44.205Z,1016.09
2017-04-19T10:31:44.242Z,1016.13
2017-04-19T10:32:44.287Z,1016.2
2017-04-19T10:33:44.316Z,1016.22
2017-04-19T10:34:44.355Z,1016.23
2017-04-19T10:35:44.393Z,1016.28
2017-04-19T10:36:44.429Z,1016.27
2017-04-19T10:37:44.467Z,1016.24
2017-04-19T10:38:44.503Z,1016.21
2017-04-19T10:39:44.540Z,1016.22
2017-04-19T10:40:44.576Z,1016.19
2017-04-19T10:41:44.614Z,1016.07
2017-04-19T10:42:44.649Z,1016.14
2017-04-19T10:43:44.687Z,1016.05
2017-04-19T10:44:44.724Z,1016.08
2017-04-19T10:45:44.759Z,1016.14
2017-04-19T10:46:44.796Z,1016.1
2017-04-19T10:47:44.833Z,1016.14
2017-04-19T10:48:44.874Z,1016.14
2017-04-19T10:49:44.912Z,1016.12
2017-04-19T10:50:44.941Z,1016.15
2017-04-19T10:51:44.979Z,1016.24
2017-04-19T10:52:45.017Z,1016.14
2017-04-19T10:53:45.054Z,1016.1
2017-04-19T10:54:45.091Z,1016.11
2017-04-19T10:55:45.131Z,1016.05
2017-04-19T10:56:45.176Z,1016.08
2017-04-19T10:57:45.206Z,1016.03
2017-04-19T10:58:45.243Z,1016.06
2017-04-19T10:59:45.282Z,1016.14
2017-04-19T11:00:45.320Z,1016.08
2017-04-19T11:01:45.357Z,1016.15
2017-04-19T11:02:45.395Z,1016.12
2017-04-19T11:03:45.433Z,1016.13
2017-04-19T11:04:45.471Z,1016.12
2017-04-19T11:05:45.508Z,1016.17
2017-04-19T11:06:45.546Z,1016.17
2017-04-19T11:07:45.583Z,1016.18
2017-04-19T11:08:45.620Z,1016.18
2017-04-19T11:09:45.656Z,1016.26
2017-04-19T11:10:45.693Z,1016.2
2017-04-19T11:11:45.730Z,1016.16
2017-04-19T11:12:45.767Z,1016.18
2017-04-19T11:13:45.805Z,1016.24
2017-04-19T11:14:45.842Z,1016.25
2017-04-19T11:15:45.877Z,1016.3
2017-04-19T11:16:45.915Z,1016.24
2017-04-19T11:17:45.952Z,1016.3
2017-04-19T11:18:45.988Z,1016.26
2017-04-19T11:19:46.024Z,1016.27
2017-04-19T11:20:46.061Z,1016.32
2017-04-19T11:21:46.098Z,1016.26
2017-04-19T11:22:46.134Z,1016.3
2017-04-19T11:23:46.170Z,1016.26
2017-04-19T11:24:46.207Z,1016.23
2017-04-19T11:25:46.244Z,1016.26
2017-04-19T11:26:46.281Z,1016.35
2017-04-19T11:27:46.318Z,1016.38
2017-04-19T11:28:46.355Z,1016.36
2017-04-19T11:29:46.391Z,1016.39
2017-04-19T11:30:46.428Z,1016.52
2017-04-19T11:31:46.465Z,1016.45
2017-04-19T11:32:46.501Z,1016.42
2017-04-19T11:33:46.538Z,1016.38
2017-04-19T11:34:46.574Z,1016.34
2017-04-19T11:35:46.613Z,1016.37
2017-04-19T11:36:46.650Z,1016.35
2017-04-19T11:37:46.685Z,1016.36
2017-04-19T11:38:46.723Z,1016.33
2017-04-19T11:39:46.759Z,1016.36
2017-04-19T11:40:46.797Z,1016.36
2017-04-19T11:41:46.835Z,1016.33
2017-04-19T11:42:46.871Z,1016.34
2017-04-19T11:43:46.909Z,1016.4
2017-04-19T11:44:46.944Z,1016.38
2017-04-19T11:45:46.981Z,1016.41
2017-04-19T11:46:47.018Z,1016.4
2017-04-19T11:47:47.055Z,1016.31
2017-04-19T11:48:47.091Z,1016.31
2017-04-19T11:49:47.129Z,1016.33
2017-04-19T11:50:47.165Z,1016.24
2017-04-19T11:51:47.201Z,1016.24
2017-04-19T11:52:47.239Z,1016.23
2017-04-19T11:53:47.275Z,1016.26
2017-04-19T11:54:47.312Z,1016.2
2017-04-19T11:55:47.350Z,1016.26
2017-04-19T11:56:47.386Z,1016.19
2017-04-19T11:57:47.423Z,1016.24
2017-04-19T11:58:47.460Z,1016.25
2017-04-19T11:59:47.498Z,1016.23
2017-04-19T12:00:47.533Z,1016.25
2017-04-19T12:01:47.571Z,1016.2
2017-04-19T12:02:47.607Z,1016.17
2017-04-19T12:03:47.643Z,1016.4
2017-04-19T12:04:47.681Z,1016.33
2017-04-19T12:05:47.718Z,1016.35
2017-04-19T12:06:47.753Z,1016.3
2017-04-19T12:07:47.790Z,1016.35
2017-04-19T12:08:47.827Z,1016.36
2017-04-19T12:09:47.863Z,1016.35